sensor_id;sensor_type;location;lat;lon;timestamp;pressure;altitude;pressure_sealevel;temperature;humidity
21182;BME280;10749;46.296;7.524;2023-05-03T00:00:47;95289.03;;;13.81;37.08
21182;BME280;10749;46.296;7.524;2023-05-03T00:03:12;95294.75;;;13.78;36.96
21182;BME280;10749;46.296;7.524;2023-05-03T00:05:38;95287.94;;;13.75;37.12
21182;BME280;10749;46.296;7.524;2023-05-03T00:08:03;95290.59;;;13.75;36.89
21182;BME280;10749;46.296;7.524;2023-05-03T00:10:29;95293.09;;;13.77;37.11
21182;BME280;10749;46.296;7.524;2023-05-03T00:12:55;95300.06;;;13.78;36.97
21182;BME280;10749;46.296;7.524;2023-05-03T00:15:21;95300.06;;;13.78;36.85
21182;BME280;10749;46.296;7.524;2023-05-03T00:17:46;95292.66;;;13.73;37.32
21182;BME280;10749;46.296;7.524;2023-05-03T00:20:11;95298.34;;;13.70;37.02
21182;BME280;10749;46.296;7.524;2023-05-03T00:22:36;95295.81;;;13.62;37.03
21182;BME280;10749;46.296;7.524;2023-05-03T00:25:02;95304.13;;;13.59;36.98
21182;BME280;10749;46.296;7.524;2023-05-03T00:27:28;95305.53;;;13.55;37.12
21182;BME280;10749;46.296;7.524;2023-05-03T00:29:53;95302.69;;;13.57;37.11
21182;BME280;10749;46.296;7.524;2023-05-03T00:32:20;95300.19;;;13.55;37.13
21182;BME280;10749;46.296;7.524;2023-05-03T00:34:51;95296.53;;;13.56;37.31
21182;BME280;10749;46.296;7.524;2023-05-03T00:37:16;95293.59;;;13.51;37.34
21182;BME280;10749;46.296;7.524;2023-05-03T00:39:42;95288.41;;;13.43;37.74
21182;BME280;10749;46.296;7.524;2023-05-03T00:42:07;95290.53;;;13.33;37.79
21182;BME280;10749;46.296;7.524;2023-05-03T00:44:32;95290.53;;;13.33;37.77
21182;BME280;10749;46.296;7.524;2023-05-03T00:46:58;95295.66;;;13.34;37.68
21182;BME280;10749;46.296;7.524;2023-05-03T00:49:24;95286.41;;;13.30;37.41
21182;BME280;10749;46.296;7.524;2023-05-03T00:51:52;95280.47;;;13.28;37.55
21182;BME280;10749;46.296;7.524;2023-05-03T00:54:17;95281.84;;;13.24;37.48
21182;BME280;10749;46.296;7.524;2023-05-03T00:56:43;95288.34;;;13.22;37.77
21182;BME280;10749;46.296;7.524;2023-05-03T00:59:08;95285.44;;;13.17;37.92
21182;BME280;10749;46.296;7.524;2023-05-03T01:01:35;95283.31;;;13.12;38.14
21182;BME280;10749;46.296;7.524;2023-05-03T01:04:01;95288.50;;;13.06;37.98
21182;BME280;10749;46.296;7.524;2023-05-03T01:14:31;95275.88;;;12.78;38.46
21182;BME280;10749;46.296;7.524;2023-05-03T01:17:10;95279.97;;;12.81;38.58
21182;BME280;10749;46.296;7.524;2023-05-03T01:19:43;95281.63;;;12.82;38.33
21182;BME280;10749;46.296;7.524;2023-05-03T01:22:21;95278.97;;;12.82;38.62
21182;BME280;10749;46.296;7.524;2023-05-03T01:25:01;95274.13;;;12.85;38.56
21182;BME280;10749;46.296;7.524;2023-05-03T01:27:31;95277.97;;;12.83;38.55
21182;BME280;10749;46.296;7.524;2023-05-03T01:29:56;95276.88;;;12.77;38.64
21182;BME280;10749;46.296;7.524;2023-05-03T01:32:27;95277.13;;;12.68;38.73
21182;BME280;10749;46.296;7.524;2023-05-03T01:35:07;95284.25;;;12.67;39.08
21182;BME280;10749;46.296;7.524;2023-05-03T01:37:33;95284.25;;;12.67;38.87
21182;BME280;10749;46.296;7.524;2023-05-03T01:40:01;95280.16;;;12.65;38.66
21182;BME280;10749;46.296;7.524;2023-05-03T01:42:33;95282.34;;;12.61;39.12
21182;BME280;10749;46.296;7.524;2023-05-03T01:45:00;95280.69;;;12.60;38.83
21182;BME280;10749;46.296;7.524;2023-05-03T01:47:28;95287.38;;;12.56;38.94
21182;BME280;10749;46.296;7.524;2023-05-03T01:49:53;95291.22;;;12.54;39.02
21182;BME280;10749;46.296;7.524;2023-05-03T01:52:18;95296.41;;;12.47;39.05
21182;BME280;10749;46.296;7.524;2023-05-03T01:54:44;95288.19;;;12.42;39.06
21182;BME280;10749;46.296;7.524;2023-05-03T01:57:09;95292.47;;;12.43;38.93
21182;BME280;10749;46.296;7.524;2023-05-03T01:59:34;95292.47;;;12.43;39.08
21182;BME280;10749;46.296;7.524;2023-05-03T02:02:00;95297.44;;;12.46;39.05
21182;BME280;10749;46.296;7.524;2023-05-03T02:04:25;95295.94;;;12.43;39.01
21182;BME280;10749;46.296;7.524;2023-05-03T02:06:51;95293.50;;;12.42;38.95
21182;BME280;10749;46.296;7.524;2023-05-03T02:09:17;95292.66;;;12.41;39.11
21182;BME280;10749;46.296;7.524;2023-05-03T02:11:42;95292.84;;;12.40;39.29
21182;BME280;10749;46.296;7.524;2023-05-03T02:14:08;95290.91;;;12.34;39.43
21182;BME280;10749;46.296;7.524;2023-05-03T02:16:33;95292.28;;;12.30;39.41
21182;BME280;10749;46.296;7.524;2023-05-03T02:18:58;95295.94;;;12.29;39.41
21182;BME280;10749;46.296;7.524;2023-05-03T02:21:27;95301.03;;;12.30;39.51
21182;BME280;10749;46.296;7.524;2023-05-03T02:23:52;95300.41;;;12.28;39.79
21182;BME280;10749;46.296;7.524;2023-05-03T02:26:19;95302.22;;;12.28;39.52
21182;BME280;10749;46.296;7.524;2023-05-03T02:28:45;95302.59;;;12.25;39.70
21182;BME280;10749;46.296;7.524;2023-05-03T02:31:10;95304.78;;;12.21;39.58
21182;BME280;10749;46.296;7.524;2023-05-03T02:33:37;95297.34;;;12.17;39.78
21182;BME280;10749;46.296;7.524;2023-05-03T02:36:03;95300.06;;;12.09;39.73
21182;BME280;10749;46.296;7.524;2023-05-03T02:38:28;95294.28;;;12.05;39.64
21182;BME280;10749;46.296;7.524;2023-05-03T02:40:53;95296.75;;;12.07;39.72
21182;BME280;10749;46.296;7.524;2023-05-03T02:43:18;95299.25;;;12.08;39.97
21182;BME280;10749;46.296;7.524;2023-05-03T02:45:44;95297.22;;;12.10;39.83
21182;BME280;10749;46.296;7.524;2023-05-03T02:48:09;95289.94;;;12.12;40.24
21182;BME280;10749;46.296;7.524;2023-05-03T02:50:35;95294.94;;;12.07;39.88
21182;BME280;10749;46.296;7.524;2023-05-03T02:53:00;95288.88;;;11.98;40.30
21182;BME280;10749;46.296;7.524;2023-05-03T02:55:25;95291.69;;;11.97;40.23
21182;BME280;10749;46.296;7.524;2023-05-03T02:57:51;95278.97;;;11.92;39.88
21182;BME280;10749;46.296;7.524;2023-05-03T03:00:16;95289.91;;;11.89;40.17
21182;BME280;10749;46.296;7.524;2023-05-03T03:02:42;95285.44;;;11.90;40.15
21182;BME280;10749;46.296;7.524;2023-05-03T03:05:07;95291.59;;;11.90;40.04
21182;BME280;10749;46.296;7.524;2023-05-03T03:07:33;95292.28;;;11.84;40.04
21182;BME280;10749;46.296;7.524;2023-05-03T03:09:59;95296.78;;;11.84;40.03
21182;BME280;10749;46.296;7.524;2023-05-03T03:12:24;95290.69;;;11.75;40.28
21182;BME280;10749;46.296;7.524;2023-05-03T03:14:51;95289.03;;;11.74;40.18
21182;BME280;10749;46.296;7.524;2023-05-03T03:17:17;95283.75;;;11.74;40.17
21182;BME280;10749;46.296;7.524;2023-05-03T03:19:42;95281.09;;;11.74;40.31
21182;BME280;10749;46.296;7.524;2023-05-03T03:22:07;95282.75;;;11.75;40.46
21182;BME280;10749;46.296;7.524;2023-05-03T03:24:32;95283.25;;;11.71;40.46
21182;BME280;10749;46.296;7.524;2023-05-03T03:26:58;95278.09;;;11.69;40.45
21182;BME280;10749;46.296;7.524;2023-05-03T03:29:23;95282.78;;;11.67;40.39
21182;BME280;10749;46.296;7.524;2023-05-03T03:31:48;95284.59;;;11.67;40.50
21182;BME280;10749;46.296;7.524;2023-05-03T03:34:14;95275.13;;;11.64;40.65
21182;BME280;10749;46.296;7.524;2023-05-03T03:36:39;95284.13;;;11.63;40.71
21182;BME280;10749;46.296;7.524;2023-05-03T03:39:05;95276.69;;;11.58;40.76
21182;BME280;10749;46.296;7.524;2023-05-03T03:41:31;95278.56;;;11.50;40.69
21182;BME280;10749;46.296;7.524;2023-05-03T03:43:57;95283.56;;;11.45;41.22
21182;BME280;10749;46.296;7.524;2023-05-03T03:46:22;95283.59;;;11.37;41.21
21182;BME280;10749;46.296;7.524;2023-05-03T03:48:48;95280.47;;;11.33;41.10
21182;BME280;10749;46.296;7.524;2023-05-03T03:51:14;95284.59;;;11.36;41.31
21182;BME280;10749;46.296;7.524;2023-05-03T03:53:40;95286.56;;;11.42;41.12
21182;BME280;10749;46.296;7.524;2023-05-03T03:56:06;95289.53;;;11.47;40.83
21182;BME280;10749;46.296;7.524;2023-05-03T03:58:32;95287.38;;;11.42;40.77
21182;BME280;10749;46.296;7.524;2023-05-03T04:00:57;95282.41;;;11.39;41.26
21182;BME280;10749;46.296;7.524;2023-05-03T04:03:24;95287.94;;;11.30;41.35
21182;BME280;10749;46.296;7.524;2023-05-03T04:05:49;95285.97;;;11.24;41.20
21182;BME280;10749;46.296;7.524;2023-05-03T04:08:15;95284.03;;;11.18;41.03
21182;BME280;10749;46.296;7.524;2023-05-03T04:10:40;95286.31;;;11.21;40.97
21182;BME280;10749;46.296;7.524;2023-05-03T04:13:05;95285.66;;;11.19;41.00
21182;BME280;10749;46.296;7.524;2023-05-03T04:15:31;95282.69;;;11.22;41.19
21182;BME280;10749;46.296;7.524;2023-05-03T04:17:56;95289.78;;;11.29;41.23
21182;BME280;10749;46.296;7.524;2023-05-03T04:20:21;95292.78;;;11.26;41.11
21182;BME280;10749;46.296;7.524;2023-05-03T04:22:47;95292.63;;;11.20;40.91
21182;BME280;10749;46.296;7.524;2023-05-03T04:25:12;95296.94;;;11.21;41.00
21182;BME280;10749;46.296;7.524;2023-05-03T04:27:38;95302.56;;;11.18;41.42
21182;BME280;10749;46.296;7.524;2023-05-03T04:30:04;95298.28;;;11.17;41.53
21182;BME280;10749;46.296;7.524;2023-05-03T04:32:30;95299.56;;;11.21;41.46
21182;BME280;10749;46.296;7.524;2023-05-03T04:35:01;95306.19;;;11.25;40.67
21182;BME280;10749;46.296;7.524;2023-05-03T04:37:26;95303.19;;;11.28;40.62
21182;BME280;10749;46.296;7.524;2023-05-03T04:39:52;95302.53;;;11.26;40.95
21182;BME280;10749;46.296;7.524;2023-05-03T04:42:17;95315.28;;;11.30;41.24
21182;BME280;10749;46.296;7.524;2023-05-03T04:44:42;95312.44;;;11.32;41.42
21182;BME280;10749;46.296;7.524;2023-05-03T04:47:08;95316.44;;;11.28;41.39
21182;BME280;10749;46.296;7.524;2023-05-03T04:49:33;95314.59;;;11.28;40.44
21182;BME280;10749;46.296;7.524;2023-05-03T04:51:59;95321.59;;;11.21;40.62
21182;BME280;10749;46.296;7.524;2023-05-03T04:54:25;95326.91;;;11.21;40.88
21182;BME280;10749;46.296;7.524;2023-05-03T04:56:50;95332.84;;;11.23;41.16
21182;BME280;10749;46.296;7.524;2023-05-03T04:59:16;95334.66;;;11.23;41.46
21182;BME280;10749;46.296;7.524;2023-05-03T05:01:41;95334.66;;;11.23;41.50
21182;BME280;10749;46.296;7.524;2023-05-03T05:04:07;95330.53;;;11.20;41.85
21182;BME280;10749;46.296;7.524;2023-05-03T05:06:33;95330.53;;;11.20;41.89
21182;BME280;10749;46.296;7.524;2023-05-03T05:08:58;95336.31;;;11.24;41.73
21182;BME280;10749;46.296;7.524;2023-05-03T05:11:23;95341.63;;;11.24;41.59
21182;BME280;10749;46.296;7.524;2023-05-03T05:13:49;95344.28;;;11.24;41.63
21182;BME280;10749;46.296;7.524;2023-05-03T05:16:14;95342.78;;;11.21;41.78
21182;BME280;10749;46.296;7.524;2023-05-03T05:18:39;95346.56;;;11.27;42.07
21182;BME280;10749;46.296;7.524;2023-05-03T05:21:05;95347.41;;;11.27;41.90
21182;BME280;10749;46.296;7.524;2023-05-03T05:23:30;95349.56;;;11.24;42.27
21182;BME280;10749;46.296;7.524;2023-05-03T05:25:55;95350.56;;;11.23;42.52
21182;BME280;10749;46.296;7.524;2023-05-03T05:28:25;95363.28;;;11.27;42.55
21182;BME280;10749;46.296;7.524;2023-05-03T05:30:51;95356.66;;;11.31;42.52
21182;BME280;10749;46.296;7.524;2023-05-03T05:33:16;95362.31;;;11.28;43.11
21182;BME280;10749;46.296;7.524;2023-05-03T05:35:41;95365.91;;;11.35;42.80
21182;BME280;10749;46.296;7.524;2023-05-03T05:38:09;95369.72;;;11.41;42.97
21182;BME280;10749;46.296;7.524;2023-05-03T05:40:34;95370.34;;;11.51;42.90
21182;BME280;10749;46.296;7.524;2023-05-03T05:43:00;95370.59;;;11.64;43.13
21182;BME280;10749;46.296;7.524;2023-05-03T05:45:25;95362.63;;;11.72;43.33
21182;BME280;10749;46.296;7.524;2023-05-03T05:47:51;95366.88;;;11.81;43.24
21182;BME280;10749;46.296;7.524;2023-05-03T05:50:16;95367.34;;;11.85;43.38
21182;BME280;10749;46.296;7.524;2023-05-03T05:52:41;95370.53;;;11.88;43.46
21182;BME280;10749;46.296;7.524;2023-05-03T05:55:07;95373.41;;;12.01;43.42
21182;BME280;10749;46.296;7.524;2023-05-03T05:57:32;95372.66;;;12.16;43.27
21182;BME280;10749;46.296;7.524;2023-05-03T05:59:57;95368.94;;;12.25;43.32
21182;BME280;10749;46.296;7.524;2023-05-03T06:02:23;95369.19;;;12.38;43.27
21182;BME280;10749;46.296;7.524;2023-05-03T06:04:48;95360.78;;;12.49;43.55
21182;BME280;10749;46.296;7.524;2023-05-03T06:07:14;95366.66;;;12.59;43.24
21182;BME280;10749;46.296;7.524;2023-05-03T06:09:41;95364.13;;;12.66;43.32
21182;BME280;10749;46.296;7.524;2023-05-03T06:12:06;95364.22;;;12.72;43.75
21182;BME280;10749;46.296;7.524;2023-05-03T06:14:32;95367.47;;;12.82;43.74
21182;BME280;10749;46.296;7.524;2023-05-03T06:16:57;95361.88;;;12.92;43.59
21182;BME280;10749;46.296;7.524;2023-05-03T06:19:23;95359.16;;;13.00;43.70
21182;BME280;10749;46.296;7.524;2023-05-03T06:21:49;95360.03;;;13.15;43.68
21182;BME280;10749;46.296;7.524;2023-05-03T06:24:15;95362.88;;;13.28;43.53
21182;BME280;10749;46.296;7.524;2023-05-03T06:26:45;95370.81;;;13.43;43.61
21182;BME280;10749;46.296;7.524;2023-05-03T06:29:10;95362.38;;;13.54;43.79
21182;BME280;10749;46.296;7.524;2023-05-03T06:31:36;95364.56;;;13.65;43.54
21182;BME280;10749;46.296;7.524;2023-05-03T06:34:01;95362.09;;;13.78;43.45
21182;BME280;10749;46.296;7.524;2023-05-03T06:36:26;95363.25;;;13.91;43.64
21182;BME280;10749;46.296;7.524;2023-05-03T06:38:53;95361.88;;;13.95;43.43
21182;BME280;10749;46.296;7.524;2023-05-03T06:41:19;95362.38;;;14.05;43.44
21182;BME280;10749;46.296;7.524;2023-05-03T06:43:45;95363.19;;;14.05;43.12
21182;BME280;10749;46.296;7.524;2023-05-03T06:46:10;95352.44;;;14.13;43.29
21182;BME280;10749;46.296;7.524;2023-05-03T06:48:37;95362.81;;;14.29;43.51
21182;BME280;10749;46.296;7.524;2023-05-03T06:51:02;95353.91;;;14.37;43.21
21182;BME280;10749;46.296;7.524;2023-05-03T06:53:27;95358.50;;;14.43;43.13
21182;BME280;10749;46.296;7.524;2023-05-03T06:55:53;95350.81;;;14.55;43.12
21182;BME280;10749;46.296;7.524;2023-05-03T06:58:18;95355.03;;;14.70;43.14
21182;BME280;10749;46.296;7.524;2023-05-03T07:00:43;95357.19;;;14.82;43.10
21182;BME280;10749;46.296;7.524;2023-05-03T07:03:09;95352.75;;;14.89;43.17
21182;BME280;10749;46.296;7.524;2023-05-03T07:05:34;95346.66;;;14.95;42.95
21182;BME280;10749;46.296;7.524;2023-05-03T07:08:00;95349.94;;;14.97;42.98
21182;BME280;10749;46.296;7.524;2023-05-03T07:10:25;95344.72;;;15.16;42.76
21182;BME280;10749;46.296;7.524;2023-05-03T07:12:54;95334.72;;;15.25;42.89
21182;BME280;10749;46.296;7.524;2023-05-03T07:15:19;95335.00;;;15.37;43.31
21182;BME280;10749;46.296;7.524;2023-05-03T07:17:45;95331.75;;;15.41;43.02
21182;BME280;10749;46.296;7.524;2023-05-03T07:20:10;95338.31;;;15.39;42.71
21182;BME280;10749;46.296;7.524;2023-05-03T07:22:36;95321.50;;;15.45;42.78
21182;BME280;10749;46.296;7.524;2023-05-03T07:25:01;95323.66;;;15.62;42.39
21182;BME280;10749;46.296;7.524;2023-05-03T07:27:26;95324.91;;;15.66;42.38
21182;BME280;10749;46.296;7.524;2023-05-03T07:29:52;95320.81;;;15.64;42.35
21182;BME280;10749;46.296;7.524;2023-05-03T07:32:18;95310.09;;;15.57;42.00
21182;BME280;10749;46.296;7.524;2023-05-03T07:34:43;95306.03;;;15.68;42.33
21182;BME280;10749;46.296;7.524;2023-05-03T07:37:08;95306.28;;;15.86;41.94
21182;BME280;10749;46.296;7.524;2023-05-03T07:39:34;95302.84;;;15.99;41.83
21182;BME280;10749;46.296;7.524;2023-05-03T07:42:00;95301.63;;;16.01;41.79
21182;BME280;10749;46.296;7.524;2023-05-03T07:44:26;95288.91;;;16.10;41.77
21182;BME280;10749;46.296;7.524;2023-05-03T07:46:51;95286.88;;;16.19;41.45
21182;BME280;10749;46.296;7.524;2023-05-03T07:49:16;95285.19;;;16.11;41.12
21182;BME280;10749;46.296;7.524;2023-05-03T07:51:42;95285.63;;;16.01;41.00
21182;BME280;10749;46.296;7.524;2023-05-03T07:54:07;95271.66;;;16.12;40.88
21182;BME280;10749;46.296;7.524;2023-05-03T07:56:33;95272.31;;;16.34;41.00
21182;BME280;10749;46.296;7.524;2023-05-03T07:58:59;95268.41;;;16.43;40.65
21182;BME280;10749;46.296;7.524;2023-05-03T08:01:24;95264.09;;;16.42;40.83
21182;BME280;10749;46.296;7.524;2023-05-03T08:03:50;95262.63;;;16.53;40.66
21182;BME280;10749;46.296;7.524;2023-05-03T08:06:16;95256.91;;;16.63;40.44
21182;BME280;10749;46.296;7.524;2023-05-03T08:08:42;95262.69;;;16.73;40.68
21182;BME280;10749;46.296;7.524;2023-05-03T08:11:08;95252.16;;;16.78;40.58
21182;BME280;10749;46.296;7.524;2023-05-03T08:13:33;95246.81;;;16.91;40.23
21182;BME280;10749;46.296;7.524;2023-05-03T08:15:58;95244.13;;;16.97;40.45
21182;BME280;10749;46.296;7.524;2023-05-03T08:18:23;95235.09;;;16.92;40.17
21182;BME280;10749;46.296;7.524;2023-05-03T08:20:49;95235.50;;;16.95;39.89
21182;BME280;10749;46.296;7.524;2023-05-03T08:23:15;95232.59;;;17.10;40.19
21182;BME280;10749;46.296;7.524;2023-05-03T08:25:40;95233.56;;;17.22;39.76
21182;BME280;10749;46.296;7.524;2023-05-03T08:28:09;95217.53;;;17.22;39.84
21182;BME280;10749;46.296;7.524;2023-05-03T08:30:35;95218.75;;;17.26;39.66
21182;BME280;10749;46.296;7.524;2023-05-03T08:33:00;95213.75;;;17.36;39.79
21182;BME280;10749;46.296;7.524;2023-05-03T08:35:25;95205.66;;;17.49;39.67
21182;BME280;10749;46.296;7.524;2023-05-03T08:37:52;95203.19;;;17.54;39.62
21182;BME280;10749;46.296;7.524;2023-05-03T08:40:20;95199.91;;;17.59;39.33
21182;BME280;10749;46.296;7.524;2023-05-03T08:42:46;95191.44;;;17.62;39.68
21182;BME280;10749;46.296;7.524;2023-05-03T08:45:13;95191.56;;;17.74;39.57
21182;BME280;10749;46.296;7.524;2023-05-03T08:47:41;95182.72;;;17.73;38.98
21182;BME280;10749;46.296;7.524;2023-05-03T08:50:09;95187.44;;;17.78;39.04
21182;BME280;10749;46.296;7.524;2023-05-03T08:52:35;95182.00;;;17.91;39.27
21182;BME280;10749;46.296;7.524;2023-05-03T08:55:02;95180.91;;;17.98;39.16
21182;BME280;10749;46.296;7.524;2023-05-03T08:57:28;95175.06;;;18.08;39.32
21182;BME280;10749;46.296;7.524;2023-05-03T08:59:53;95181.47;;;18.07;38.95
21182;BME280;10749;46.296;7.524;2023-05-03T09:02:22;95177.13;;;18.06;38.85
21182;BME280;10749;46.296;7.524;2023-05-03T09:04:47;95174.63;;;18.11;39.05
21182;BME280;10749;46.296;7.524;2023-05-03T09:07:13;95175.66;;;18.10;39.04
21182;BME280;10749;46.296;7.524;2023-05-03T09:09:40;95155.84;;;18.18;38.99
21182;BME280;10749;46.296;7.524;2023-05-03T09:12:07;95167.69;;;18.28;38.83
21182;BME280;10749;46.296;7.524;2023-05-03T09:14:45;95166.38;;;18.37;38.90
21182;BME280;10749;46.296;7.524;2023-05-03T09:17:17;95164.28;;;18.39;38.93
21182;BME280;10749;46.296;7.524;2023-05-03T09:19:52;95146.34;;;18.40;38.67
21182;BME280;10749;46.296;7.524;2023-05-03T09:22:18;95149.09;;;18.33;38.65
21182;BME280;10749;46.296;7.524;2023-05-03T09:24:56;95139.88;;;18.29;38.47
21182;BME280;10749;46.296;7.524;2023-05-03T09:27:23;95140.78;;;18.41;38.19
21182;BME280;10749;46.296;7.524;2023-05-03T09:29:50;95136.06;;;18.62;38.61
21182;BME280;10749;46.296;7.524;2023-05-03T09:32:16;95126.03;;;18.75;38.71
21182;BME280;10749;46.296;7.524;2023-05-03T09:34:42;95142.41;;;18.85;38.49
21182;BME280;10749;46.296;7.524;2023-05-03T09:37:08;95135.94;;;18.93;38.10
21182;BME280;10749;46.296;7.524;2023-05-03T09:39:34;95129.53;;;18.94;38.15
21182;BME280;10749;46.296;7.524;2023-05-03T09:42:17;95122.16;;;18.89;37.85
21182;BME280;10749;46.296;7.524;2023-05-03T09:44:47;95119.94;;;18.86;38.09
21182;BME280;10749;46.296;7.524;2023-05-03T09:47:18;95119.72;;;18.88;37.96
21182;BME280;10749;46.296;7.524;2023-05-03T09:49:44;95109.34;;;18.92;37.38
21182;BME280;10749;46.296;7.524;2023-05-03T09:52:10;95103.44;;;19.01;37.80
21182;BME280;10749;46.296;7.524;2023-05-03T09:54:36;95102.91;;;19.11;37.52
21182;BME280;10749;46.296;7.524;2023-05-03T09:57:03;95100.38;;;19.16;37.59
21182;BME280;10749;46.296;7.524;2023-05-03T09:59:29;95097.44;;;19.17;36.91
21182;BME280;10749;46.296;7.524;2023-05-03T10:01:56;95086.56;;;19.30;37.16
21182;BME280;10749;46.296;7.524;2023-05-03T10:04:26;95080.56;;;19.47;37.47
21182;BME280;10749;46.296;7.524;2023-05-03T10:06:57;95085.03;;;19.53;37.05
21182;BME280;10749;46.296;7.524;2023-05-03T10:09:29;95082.34;;;19.53;37.07
21182;BME280;10749;46.296;7.524;2023-05-03T10:11:57;95084.50;;;19.62;37.11
21182;BME280;10749;46.296;7.524;2023-05-03T10:14:23;95085.88;;;19.65;36.71
21182;BME280;10749;46.296;7.524;2023-05-03T10:16:58;95077.13;;;19.58;36.24
21182;BME280;10749;46.296;7.524;2023-05-03T10:24:29;95069.03;;;19.88;36.45
21182;BME280;10749;46.296;7.524;2023-05-03T10:26:55;95077.66;;;19.90;36.14
21182;BME280;10749;46.296;7.524;2023-05-03T10:32:35;95064.81;;;20.15;35.80
21182;BME280;10749;46.296;7.524;2023-05-03T10:35:12;95068.94;;;20.41;36.15
21182;BME280;10749;46.296;7.524;2023-05-03T10:37:42;95064.25;;;20.48;35.85
21182;BME280;10749;46.296;7.524;2023-05-03T10:40:15;95055.72;;;20.51;36.50
21182;BME280;10749;46.296;7.524;2023-05-03T10:42:48;95055.94;;;20.61;36.38
21182;BME280;10749;46.296;7.524;2023-05-03T10:45:24;95051.75;;;20.65;35.58
21182;BME280;10749;46.296;7.524;2023-05-03T10:50:38;95038.03;;;20.78;35.22
21182;BME280;10749;46.296;7.524;2023-05-03T10:53:04;95047.00;;;20.95;35.05
21182;BME280;10749;46.296;7.524;2023-05-03T10:55:29;95033.50;;;21.07;35.15
21182;BME280;10749;46.296;7.524;2023-05-03T10:57:56;95030.53;;;21.08;34.96
21182;BME280;10749;46.296;7.524;2023-05-03T11:00:42;95024.94;;;21.38;35.26
21182;BME280;10749;46.296;7.524;2023-05-03T11:03:15;95029.72;;;21.48;34.78
21182;BME280;10749;46.296;7.524;2023-05-03T11:05:49;95029.22;;;21.51;33.92
21182;BME280;10749;46.296;7.524;2023-05-03T11:08:17;95030.88;;;21.69;34.30
21182;BME280;10749;46.296;7.524;2023-05-03T11:10:44;95028.69;;;21.82;34.30
21182;BME280;10749;46.296;7.524;2023-05-03T11:13:09;95015.59;;;21.91;34.28
21182;BME280;10749;46.296;7.524;2023-05-03T11:15:35;95020.88;;;21.97;33.82
21182;BME280;10749;46.296;7.524;2023-05-03T11:18:01;95017.34;;;21.97;33.34
21182;BME280;10749;46.296;7.524;2023-05-03T11:20:27;95006.66;;;22.19;34.82
21182;BME280;10749;46.296;7.524;2023-05-03T11:22:52;95011.63;;;22.27;34.37
21182;BME280;10749;46.296;7.524;2023-05-03T11:25:18;95001.34;;;22.24;33.95
21182;BME280;10749;46.296;7.524;2023-05-03T11:27:43;95004.41;;;22.32;33.50
21182;BME280;10749;46.296;7.524;2023-05-03T11:30:11;95007.56;;;22.46;32.61
21182;BME280;10749;46.296;7.524;2023-05-03T11:32:36;95010.44;;;22.61;32.46
21182;BME280;10749;46.296;7.524;2023-05-03T11:35:02;95003.19;;;22.62;31.91
21182;BME280;10749;46.296;7.524;2023-05-03T11:37:31;95003.19;;;22.62;31.62
21182;BME280;10749;46.296;7.524;2023-05-03T11:39:58;94995.13;;;22.83;31.85
21182;BME280;10749;46.296;7.524;2023-05-03T11:42:23;94999.69;;;22.83;30.75
21182;BME280;10749;46.296;7.524;2023-05-03T11:44:51;94998.56;;;22.79;30.02
21182;BME280;10749;46.296;7.524;2023-05-03T11:47:16;94990.34;;;22.90;29.95
21182;BME280;10749;46.296;7.524;2023-05-03T11:49:53;94996.78;;;23.11;30.04
21182;BME280;10749;46.296;7.524;2023-05-03T11:52:23;94991.28;;;23.28;30.50
21182;BME280;10749;46.296;7.524;2023-05-03T11:54:49;94983.06;;;23.39;29.77
21182;BME280;10749;46.296;7.524;2023-05-03T11:57:14;94990.16;;;23.45;29.50
21182;BME280;10749;46.296;7.524;2023-05-03T11:59:40;94980.91;;;23.68;29.56
21182;BME280;10749;46.296;7.524;2023-05-03T12:02:08;94987.44;;;23.72;29.34
21182;BME280;10749;46.296;7.524;2023-05-03T12:04:35;94981.94;;;23.62;28.93
21182;BME280;10749;46.296;7.524;2023-05-03T12:07:05;94980.44;;;23.76;30.49
21182;BME280;10749;46.296;7.524;2023-05-03T12:09:31;94977.22;;;23.79;29.61
21182;BME280;10749;46.296;7.524;2023-05-03T12:11:57;94975.69;;;23.93;29.50
21182;BME280;10749;46.296;7.524;2023-05-03T12:14:23;94974.19;;;24.08;30.43
21182;BME280;10749;46.296;7.524;2023-05-03T12:16:50;94973.41;;;24.12;29.49
21182;BME280;10749;46.296;7.524;2023-05-03T12:19:26;94967.28;;;24.27;30.87
21182;BME280;10749;46.296;7.524;2023-05-03T12:21:52;94967.34;;;24.32;29.85
21182;BME280;10749;46.296;7.524;2023-05-03T12:24:17;94968.16;;;24.32;29.26
21182;BME280;10749;46.296;7.524;2023-05-03T12:26:46;94954.91;;;24.36;28.73
21182;BME280;10749;46.296;7.524;2023-05-03T12:29:11;94957.41;;;24.43;29.38
21182;BME280;10749;46.296;7.524;2023-05-03T12:31:37;94956.38;;;24.59;29.72
21182;BME280;10749;46.296;7.524;2023-05-03T12:34:02;94950.75;;;24.70;30.00
21182;BME280;10749;46.296;7.524;2023-05-03T12:36:31;94959.41;;;24.72;29.41
21182;BME280;10749;46.296;7.524;2023-05-03T12:38:58;94947.25;;;24.75;28.87
21182;BME280;10749;46.296;7.524;2023-05-03T12:41:23;94948.16;;;24.96;28.53
21182;BME280;10749;46.296;7.524;2023-05-03T12:43:51;94938.44;;;25.00;28.22
21182;BME280;10749;46.296;7.524;2023-05-03T12:46:17;94935.75;;;25.15;28.44
21182;BME280;10749;46.296;7.524;2023-05-03T12:48:42;94936.88;;;25.29;28.44
21182;BME280;10749;46.296;7.524;2023-05-03T12:51:08;94936.88;;;25.34;27.62
21182;BME280;10749;46.296;7.524;2023-05-03T12:53:33;94933.91;;;25.41;27.69
21182;BME280;10749;46.296;7.524;2023-05-03T12:55:58;94931.75;;;25.38;27.12
21182;BME280;10749;46.296;7.524;2023-05-03T12:58:23;94930.16;;;25.62;27.70
21182;BME280;10749;46.296;7.524;2023-05-03T13:00:49;94924.47;;;25.73;27.70
21182;BME280;10749;46.296;7.524;2023-05-03T13:03:15;94926.09;;;25.80;27.72
21182;BME280;10749;46.296;7.524;2023-05-03T13:05:41;94915.78;;;25.87;27.61
21182;BME280;10749;46.296;7.524;2023-05-03T13:08:06;94908.72;;;25.96;27.70
21182;BME280;10749;46.296;7.524;2023-05-03T13:10:32;94917.41;;;25.78;26.18
21182;BME280;10749;46.296;7.524;2023-05-03T13:12:57;94915.25;;;25.80;26.54
21182;BME280;10749;46.296;7.524;2023-05-03T13:15:22;94899.78;;;25.90;26.63